sensor_id;sensor_type;location;lat;lon;timestamp;P1;durP1;ratioP1;P2;durP2;ratioP2
40541;SDS011;49288;52.194;5.676;2023-06-14T00:00:49;14.83;;;5.40;;
40541;SDS011;49288;52.194;5.676;2023-06-14T00:05:52;14.38;;;4.97;;
40541;SDS011;49288;52.194;5.676;2023-06-14T00:10:58;10.38;;;4.97;;
40541;SDS011;49288;52.194;5.676;2023-06-14T00:16:02;15.82;;;5.28;;
40541;SDS011;49288;52.194;5.676;2023-06-14T00:21:06;14.38;;;5.07;;
40541;SDS011;49288;52.194;5.676;2023-06-14T00:26:09;13.07;;;5.03;;
40541;SDS011;49288;52.194;5.676;2023-06-14T00:31:15;12.57;;;5.50;;
40541;SDS011;49288;52.194;5.676;2023-06-14T00:36:17;10.60;;;4.65;;
40541;SDS011;49288;52.194;5.676;2023-06-14T00:41:20;10.50;;;4.70;;
40541;SDS011;49288;52.194;5.676;2023-06-14T00:46:23;15.10;;;5.22;;
40541;SDS011;49288;52.194;5.676;2023-06-14T00:51:25;11.32;;;5.15;;
40541;SDS011;49288;52.194;5.676;2023-06-14T00:56:29;15.02;;;5.05;;
40541;SDS011;49288;52.194;5.676;2023-06-14T01:01:32;14.13;;;5.35;;
40541;SDS011;49288;52.194;5.676;2023-06-14T01:06:46;14.77;;;5.90;;
40541;SDS011;49288;52.194;5.676;2023-06-14T01:12:13;11.82;;;5.25;;
40541;SDS011;49288;52.194;5.676;2023-06-14T01:17:39;19.52;;;4.68;;
40541;SDS011;49288;52.194;5.676;2023-06-14T01:22:50;9.57;;;5.13;;
40541;SDS011;49288;52.194;5.676;2023-06-14T01:27:57;11.85;;;4.68;;
40541;SDS011;49288;52.194;5.676;2023-06-14T01:33:01;11.35;;;5.10;;
40541;SDS011;49288;52.194;5.676;2023-06-14T01:38:06;15.75;;;4.90;;
40541;SDS011;49288;52.194;5.676;2023-06-14T01:43:13;11.30;;;5.15;;
40541;SDS011;49288;52.194;5.676;2023-06-14T01:48:16;10.00;;;4.65;;
40541;SDS011;49288;52.194;5.676;2023-06-14T01:53:19;11.00;;;4.78;;
40541;SDS011;49288;52.194;5.676;2023-06-14T01:58:22;10.43;;;4.57;;
40541;SDS011;49288;52.194;5.676;2023-06-14T02:03:26;22.02;;;4.90;;
40541;SDS011;49288;52.194;5.676;2023-06-14T02:08:29;10.10;;;4.30;;
40541;SDS011;49288;52.194;5.676;2023-06-14T02:13:35;10.85;;;5.15;;
40541;SDS011;49288;52.194;5.676;2023-06-14T02:18:38;8.85;;;4.30;;
40541;SDS011;49288;52.194;5.676;2023-06-14T02:23:41;17.83;;;4.80;;
40541;SDS011;49288;52.194;5.676;2023-06-14T02:28:44;10.27;;;4.32;;
40541;SDS011;49288;52.194;5.676;2023-06-14T02:33:47;9.52;;;4.75;;
40541;SDS011;49288;52.194;5.676;2023-06-14T02:38:50;13.25;;;4.78;;
40541;SDS011;49288;52.194;5.676;2023-06-14T02:43:53;14.88;;;5.10;;
40541;SDS011;49288;52.194;5.676;2023-06-14T02:48:56;10.07;;;4.53;;
40541;SDS011;49288;52.194;5.676;2023-06-14T02:53:59;13.55;;;4.30;;
40541;SDS011;49288;52.194;5.676;2023-06-14T02:59:02;15.35;;;4.63;;
40541;SDS011;49288;52.194;5.676;2023-06-14T03:04:06;14.85;;;4.70;;
40541;SDS011;49288;52.194;5.676;2023-06-14T03:09:12;14.32;;;4.70;;
40541;SDS011;49288;52.194;5.676;2023-06-14T03:14:16;11.25;;;4.60;;
40541;SDS011;49288;52.194;5.676;2023-06-14T03:19:20;8.45;;;4.70;;
40541;SDS011;49288;52.194;5.676;2023-06-14T03:24:24;19.45;;;4.65;;
40541;SDS011;49288;52.194;5.676;2023-06-14T03:29:31;22.10;;;5.05;;
40541;SDS011;49288;52.194;5.676;2023-06-14T03:34:34;10.63;;;4.50;;
40541;SDS011;49288;52.194;5.676;2023-06-14T03:39:39;11.93;;;4.80;;
40541;SDS011;49288;52.194;5.676;2023-06-14T03:44:51;15.63;;;5.07;;
40541;SDS011;49288;52.194;5.676;2023-06-14T03:49:56;10.10;;;4.78;;
40541;SDS011;49288;52.194;5.676;2023-06-14T03:55:00;11.93;;;4.80;;
40541;SDS011;49288;52.194;5.676;2023-06-14T04:00:08;8.32;;;4.45;;
40541;SDS011;49288;52.194;5.676;2023-06-14T04:05:15;9.88;;;4.63;;
40541;SDS011;49288;52.194;5.676;2023-06-14T04:10:23;14.25;;;4.40;;
40541;SDS011;49288;52.194;5.676;2023-06-14T04:15:25;27.83;;;5.75;;
40541;SDS011;49288;52.194;5.676;2023-06-14T04:20:31;11.02;;;4.78;;
40541;SDS011;49288;52.194;5.676;2023-06-14T04:25:34;11.82;;;4.70;;
40541;SDS011;49288;52.194;5.676;2023-06-14T04:30:38;12.82;;;5.20;;
40541;SDS011;49288;52.194;5.676;2023-06-14T04:35:43;14.50;;;5.00;;
40541;SDS011;49288;52.194;5.676;2023-06-14T04:40:51;10.20;;;4.60;;
40541;SDS011;49288;52.194;5.676;2023-06-14T04:45:56;12.20;;;5.03;;
40541;SDS011;49288;52.194;5.676;2023-06-14T04:51:01;9.88;;;4.97;;
40541;SDS011;49288;52.194;5.676;2023-06-14T04:56:06;16.17;;;5.60;;
40541;SDS011;49288;52.194;5.676;2023-06-14T05:01:10;13.55;;;4.95;;
40541;SDS011;49288;52.194;5.676;2023-06-14T05:06:14;11.88;;;4.85;;
40541;SDS011;49288;52.194;5.676;2023-06-14T05:11:17;9.02;;;4.32;;
40541;SDS011;49288;52.194;5.676;2023-06-14T05:16:20;10.18;;;5.20;;
40541;SDS011;49288;52.194;5.676;2023-06-14T05:21:25;19.42;;;4.78;;
40541;SDS011;49288;52.194;5.676;2023-06-14T05:26:27;16.70;;;4.97;;
40541;SDS011;49288;52.194;5.676;2023-06-14T05:31:30;11.82;;;4.95;;
40541;SDS011;49288;52.194;5.676;2023-06-14T05:36:35;14.43;;;5.10;;
40541;SDS011;49288;52.194;5.676;2023-06-14T05:41:38;17.15;;;5.03;;
40541;SDS011;49288;52.194;5.676;2023-06-14T05:46:41;22.77;;;5.90;;
40541;SDS011;49288;52.194;5.676;2023-06-14T05:51:45;14.07;;;4.90;;
40541;SDS011;49288;52.194;5.676;2023-06-14T05:56:48;13.70;;;4.70;;
40541;SDS011;49288;52.194;5.676;2023-06-14T06:01:51;11.77;;;4.78;;
40541;SDS011;49288;52.194;5.676;2023-06-14T06:06:56;14.80;;;4.95;;
40541;SDS011;49288;52.194;5.676;2023-06-14T06:12:00;9.85;;;4.60;;
40541;SDS011;49288;52.194;5.676;2023-06-14T06:22:07;14.98;;;5.53;;
40541;SDS011;49288;52.194;5.676;2023-06-14T06:27:10;20.10;;;5.82;;
40541;SDS011;49288;52.194;5.676;2023-06-14T06:32:15;15.52;;;5.07;;
40541;SDS011;49288;52.194;5.676;2023-06-14T06:37:19;9.98;;;5.15;;
40541;SDS011;49288;52.194;5.676;2023-06-14T06:42:22;22.10;;;4.97;;
40541;SDS011;49288;52.194;5.676;2023-06-14T06:47:26;12.50;;;4.05;;
40541;SDS011;49288;52.194;5.676;2023-06-14T06:52:28;8.85;;;4.63;;
40541;SDS011;49288;52.194;5.676;2023-06-14T06:57:32;10.63;;;4.45;;
40541;SDS011;49288;52.194;5.676;2023-06-14T07:02:36;10.38;;;3.90;;
40541;SDS011;49288;52.194;5.676;2023-06-14T07:07:39;20.53;;;5.57;;
40541;SDS011;49288;52.194;5.676;2023-06-14T07:12:43;20.42;;;4.43;;
40541;SDS011;49288;52.194;5.676;2023-06-14T07:17:47;10.73;;;3.75;;
40541;SDS011;49288;52.194;5.676;2023-06-14T07:22:49;9.20;;;3.63;;
40541;SDS011;49288;52.194;5.676;2023-06-14T07:27:53;7.03;;;3.72;;
40541;SDS011;49288;52.194;5.676;2023-06-14T07:33:14;9.32;;;3.63;;
40541;SDS011;49288;52.194;5.676;2023-06-14T07:38:18;14.98;;;3.88;;
40541;SDS011;49288;52.194;5.676;2023-06-14T07:43:21;19.38;;;4.00;;
40541;SDS011;49288;52.194;5.676;2023-06-14T07:48:24;13.10;;;3.83;;
40541;SDS011;49288;52.194;5.676;2023-06-14T07:53:31;13.07;;;3.60;;
40541;SDS011;49288;52.194;5.676;2023-06-14T07:58:34;10.05;;;3.22;;
40541;SDS011;49288;52.194;5.676;2023-06-14T08:08:40;10.57;;;3.45;;
40541;SDS011;49288;52.194;5.676;2023-06-14T08:13:43;12.20;;;3.23;;
40541;SDS011;49288;52.194;5.676;2023-06-14T08:18:45;24.17;;;3.43;;
40541;SDS011;49288;52.194;5.676;2023-06-14T08:23:48;14.85;;;3.17;;
40541;SDS011;49288;52.194;5.676;2023-06-14T08:28:51;8.60;;;3.10;;
40541;SDS011;49288;52.194;5.676;2023-06-14T08:33:53;14.68;;;3.20;;
40541;SDS011;49288;52.194;5.676;2023-06-14T08:38:59;46.65;;;4.20;;
40541;SDS011;49288;52.194;5.676;2023-06-14T08:44:01;6.05;;;3.55;;
40541;SDS011;49288;52.194;5.676;2023-06-14T08:49:04;6.78;;;3.67;;
40541;SDS011;49288;52.194;5.676;2023-06-14T08:54:08;9.20;;;3.05;;
40541;SDS011;49288;52.194;5.676;2023-06-14T08:59:13;7.70;;;3.17;;
40541;SDS011;49288;52.194;5.676;2023-06-14T09:04:17;9.40;;;3.15;;
40541;SDS011;49288;52.194;5.676;2023-06-14T09:09:21;7.55;;;2.80;;
40541;SDS011;49288;52.194;5.676;2023-06-14T09:14:25;19.08;;;3.63;;
40541;SDS011;49288;52.194;5.676;2023-06-14T09:19:28;6.88;;;2.92;;
40541;SDS011;49288;52.194;5.676;2023-06-14T09:24:31;5.30;;;2.80;;
40541;SDS011;49288;52.194;5.676;2023-06-14T09:34:37;28.77;;;3.45;;
40541;SDS011;49288;52.194;5.676;2023-06-14T09:44:54;10.10;;;3.28;;
40541;SDS011;49288;52.194;5.676;2023-06-14T09:49:58;7.50;;;3.00;;
40541;SDS011;49288;52.194;5.676;2023-06-14T09:55:02;7.00;;;3.20;;
40541;SDS011;49288;52.194;5.676;2023-06-14T10:00:13;12.38;;;3.30;;
40541;SDS011;49288;52.194;5.676;2023-06-14T10:05:17;5.00;;;2.80;;
40541;SDS011;49288;52.194;5.676;2023-06-14T10:10:22;15.48;;;3.03;;
40541;SDS011;49288;52.194;5.676;2023-06-14T10:15:31;7.28;;;3.00;;
40541;SDS011;49288;52.194;5.676;2023-06-14T10:20:39;8.98;;;3.05;;
40541;SDS011;49288;52.194;5.676;2023-06-14T10:25:56;10.93;;;2.90;;
40541;SDS011;49288;52.194;5.676;2023-06-14T10:41:28;7.03;;;3.00;;
40541;SDS011;49288;52.194;5.676;2023-06-14T10:46:31;11.05;;;3.00;;
40541;SDS011;49288;52.194;5.676;2023-06-14T10:51:38;15.10;;;3.38;;
40541;SDS011;49288;52.194;5.676;2023-06-14T10:56:51;6.13;;;2.60;;
40541;SDS011;49288;52.194;5.676;2023-06-14T11:02:20;18.83;;;2.97;;
40541;SDS011;49288;52.194;5.676;2023-06-14T11:08:16;8.38;;;2.53;;
40541;SDS011;49288;52.194;5.676;2023-06-14T11:13:28;9.13;;;2.97;;
40541;SDS011;49288;52.194;5.676;2023-06-14T11:18:33;6.85;;;2.90;;
40541;SDS011;49288;52.194;5.676;2023-06-14T11:23:36;6.35;;;2.92;;
40541;SDS011;49288;52.194;5.676;2023-06-14T11:34:01;7.93;;;2.90;;
40541;SDS011;49288;52.194;5.676;2023-06-14T11:39:06;4.07;;;2.80;;
40541;SDS011;49288;52.194;5.676;2023-06-14T11:44:09;31.65;;;3.60;;
40541;SDS011;49288;52.194;5.676;2023-06-14T11:49:12;10.23;;;3.30;;
40541;SDS011;49288;52.194;5.676;2023-06-14T11:54:15;9.98;;;3.25;;
40541;SDS011;49288;52.194;5.676;2023-06-14T11:59:18;5.93;;;2.78;;
40541;SDS011;49288;52.194;5.676;2023-06-14T12:04:24;10.45;;;2.97;;
40541;SDS011;49288;52.194;5.676;2023-06-14T12:09:29;9.73;;;2.88;;
40541;SDS011;49288;52.194;5.676;2023-06-14T12:14:32;5.40;;;2.92;;
40541;SDS011;49288;52.194;5.676;2023-06-14T12:19:43;8.52;;;2.75;;
40541;SDS011;49288;52.194;5.676;2023-06-14T12:24:47;6.72;;;2.63;;
40541;SDS011;49288;52.194;5.676;2023-06-14T12:29:59;8.00;;;2.83;;
40541;SDS011;49288;52.194;5.676;2023-06-14T12:35:03;8.45;;;2.70;;
40541;SDS011;49288;52.194;5.676;2023-06-14T12:40:06;6.93;;;2.85;;
40541;SDS011;49288;52.194;5.676;2023-06-14T12:45:10;9.65;;;2.72;;
40541;SDS011;49288;52.194;5.676;2023-06-14T12:50:13;15.20;;;3.13;;
40541;SDS011;49288;52.194;5.676;2023-06-14T12:55:17;18.85;;;3.08;;
40541;SDS011;49288;52.194;5.676;2023-06-14T13:00:21;6.70;;;2.90;;
40541;SDS011;49288;52.194;5.676;2023-06-14T13:05:24;8.38;;;2.67;;
40541;SDS011;49288;52.194;5.676;2023-06-14T13:10:27;7.75;;;3.00;;
40541;SDS011;49288;52.194;5.676;2023-06-14T13:15:30;13.23;;;3.22;;
40541;SDS011;49288;52.194;5.676;2023-06-14T13:20:32;9.55;;;2.95;;
40541;SDS011;49288;52.194;5.676;2023-06-14T13:25:36;9.43;;;3.45;;
40541;SDS011;49288;52.194;5.676;2023-06-14T13:30:39;10.43;;;2.90;;
40541;SDS011;49288;52.194;5.676;2023-06-14T13:35:42;7.00;;;2.83;;
40541;SDS011;49288;52.194;5.676;2023-06-14T13:40:45;5.03;;;2.50;;
40541;SDS011;49288;52.194;5.676;2023-06-14T13:45:48;8.73;;;3.08;;
40541;SDS011;49288;52.194;5.676;2023-06-14T13:50:50;4.43;;;2.67;;
40541;SDS011;49288;52.194;5.676;2023-06-14T13:55:53;4.72;;;2.38;;
40541;SDS011;49288;52.194;5.676;2023-06-14T14:00:56;8.57;;;2.72;;
40541;SDS011;49288;52.194;5.676;2023-06-14T14:06:03;5.25;;;2.55;;
40541;SDS011;49288;52.194;5.676;2023-06-14T14:11:06;12.95;;;2.92;;
40541;SDS011;49288;52.194;5.676;2023-06-14T14:16:09;9.30;;;3.22;;
40541;SDS011;49288;52.194;5.676;2023-06-14T14:21:13;12.70;;;2.60;;
40541;SDS011;49288;52.194;5.676;2023-06-14T14:26:16;16.35;;;2.60;;
40541;SDS011;49288;52.194;5.676;2023-06-14T14:31:19;10.68;;;2.70;;
40541;SDS011;49288;52.194;5.676;2023-06-14T14:36:22;5.13;;;2.50;;
40541;SDS011;49288;52.194;5.676;2023-06-14T14:41:25;6.97;;;2.70;;
40541;SDS011;49288;52.194;5.676;2023-06-14T14:46:29;11.40;;;2.50;;
40541;SDS011;49288;52.194;5.676;2023-06-14T14:51:32;18.27;;;2.58;;
40541;SDS011;49288;52.194;5.676;2023-06-14T14:56:35;8.90;;;2.60;;
40541;SDS011;49288;52.194;5.676;2023-06-14T15:01:40;10.60;;;2.40;;
40541;SDS011;49288;52.194;5.676;2023-06-14T15:06:44;6.70;;;2.60;;
40541;SDS011;49288;52.194;5.676;2023-06-14T15:11:46;4.32;;;2.40;;
40541;SDS011;49288;52.194;5.676;2023-06-14T15:16:49;6.90;;;2.70;;
40541;SDS011;49288;52.194;5.676;2023-06-14T15:21:52;8.07;;;2.60;;
40541;SDS011;49288;52.194;5.676;2023-06-14T15:26:56;5.00;;;2.72;;
40541;SDS011;49288;52.194;5.676;2023-06-14T15:32:00;7.97;;;2.50;;
40541;SDS011;49288;52.194;5.676;2023-06-14T15:37:03;4.00;;;2.30;;
40541;SDS011;49288;52.194;5.676;2023-06-14T15:42:07;9.85;;;2.90;;
40541;SDS011;49288;52.194;5.676;2023-06-14T15:47:10;6.40;;;2.47;;
40541;SDS011;49288;52.194;5.676;2023-06-14T15:52:13;11.95;;;2.63;;
40541;SDS011;49288;52.194;5.676;2023-06-14T15:57:15;6.00;;;2.65;;
40541;SDS011;49288;52.194;5.676;2023-06-14T16:02:18;7.53;;;2.67;;
40541;SDS011;49288;52.194;5.676;2023-06-14T16:07:21;12.07;;;2.90;;
40541;SDS011;49288;52.194;5.676;2023-06-14T16:12:25;8.95;;;2.60;;
40541;SDS011;49288;52.194;5.676;2023-06-14T16:17:27;7.30;;;2.72;;
40541;SDS011;49288;52.194;5.676;2023-06-14T16:22:30;5.32;;;2.80;;
40541;SDS011;49288;52.194;5.676;2023-06-14T16:27:33;4.30;;;2.80;;
40541;SDS011;49288;52.194;5.676;2023-06-14T16:32:36;5.15;;;2.58;;
40541;SDS011;49288;52.194;5.676;2023-06-14T16:37:39;6.93;;;2.80;;
40541;SDS011;49288;52.194;5.676;2023-06-14T16:52:46;8.30;;;2.83;;
40541;SDS011;49288;52.194;5.676;2023-06-14T16:57:52;7.78;;;2.70;;
40541;SDS011;49288;52.194;5.676;2023-06-14T17:02:54;5.18;;;2.88;;
40541;SDS011;49288;52.194;5.676;2023-06-14T17:07:58;6.97;;;3.50;;
40541;SDS011;49288;52.194;5.676;2023-06-14T17:13:01;4.47;;;2.78;;
40541;SDS011;49288;52.194;5.676;2023-06-14T17:18:05;6.00;;;2.90;;
40541;SDS011;49288;52.194;5.676;2023-06-14T17:23:10;8.48;;;2.90;;
40541;SDS011;49288;52.194;5.676;2023-06-14T17:28:13;13.93;;;3.00;;
40541;SDS011;49288;52.194;5.676;2023-06-14T17:33:15;5.68;;;2.88;;
40541;SDS011;49288;52.194;5.676;2023-06-14T17:38:22;8.68;;;2.92;;
40541;SDS011;49288;52.194;5.676;2023-06-14T17:43:25;5.60;;;2.90;;
40541;SDS011;49288;52.194;5.676;2023-06-14T17:48:27;3.85;;;2.58;;
40541;SDS011;49288;52.194;5.676;2023-06-14T17:53:35;15.27;;;3.05;;
40541;SDS011;49288;52.194;5.676;2023-06-14T17:58:39;11.05;;;3.13;;
40541;SDS011;49288;52.194;5.676;2023-06-14T18:03:42;4.03;;;2.72;;
40541;SDS011;49288;52.194;5.676;2023-06-14T18:13:49;7.50;;;3.30;;
40541;SDS011;49288;52.194;5.676;2023-06-14T18:19:14;7.18;;;2.83;;
40541;SDS011;49288;52.194;5.676;2023-06-14T18:24:19;16.98;;;3.40;;
40541;SDS011;49288;52.194;5.676;2023-06-14T18:29:22;9.50;;;3.47;;
40541;SDS011;49288;52.194;5.676;2023-06-14T18:34:24;7.93;;;3.13;;
40541;SDS011;49288;52.194;5.676;2023-06-14T18:39:28;13.25;;;2.97;;
40541;SDS011;49288;52.194;5.676;2023-06-14T18:44:31;3.88;;;2.95;;
40541;SDS011;49288;52.194;5.676;2023-06-14T18:49:34;9.00;;;3.00;;
40541;SDS011;49288;52.194;5.676;2023-06-14T18:59:40;6.97;;;3.00;;
40541;SDS011;49288;52.194;5.676;2023-06-14T19:04:44;4.00;;;2.95;;
40541;SDS011;49288;52.194;5.676;2023-06-14T19:09:47;9.60;;;3.10;;
40541;SDS011;49288;52.194;5.676;2023-06-14T19:14:49;7.40;;;3.00;;
40541;SDS011;49288;52.194;5.676;2023-06-14T19:19:52;5.83;;;3.37;;
40541;SDS011;49288;52.194;5.676;2023-06-14T19:24:56;9.88;;;3.10;;
40541;SDS011;49288;52.194;5.676;2023-06-14T19:29:59;10.87;;;3.40;;
40541;SDS011;49288;52.194;5.676;2023-06-14T19:35:02;5.70;;;3.10;;
40541;SDS011;49288;52.194;5.676;2023-06-14T19:40:05;9.65;;;3.17;;
40541;SDS011;49288;52.194;5.676;2023-06-14T19:45:08;11.90;;;3.42;;
40541;SDS011;49288;52.194;5.676;2023-06-14T19:50:13;8.93;;;3.08;;
40541;SDS011;49288;52.194;5.676;2023-06-14T19:55:17;16.42;;;3.20;;
40541;SDS011;49288;52.194;5.676;2023-06-14T20:00:20;11.27;;;3.33;;
40541;SDS011;49288;52.194;5.676;2023-06-14T20:05:23;4.33;;;3.00;;
40541;SDS011;49288;52.194;5.676;2023-06-14T20:10:25;6.80;;;3.13;;
40541;SDS011;49288;52.194;5.676;2023-06-14T20:15:28;6.05;;;3.63;;
40541;SDS011;49288;52.194;5.676;2023-06-14T20:20:31;8.52;;;3.60;;
40541;SDS011;49288;52.194;5.676;2023-06-14T20:25:34;6.95;;;3.20;;
40541;SDS011;49288;52.194;5.676;2023-06-14T20:30:36;6.13;;;2.97;;
40541;SDS011;49288;52.194;5.676;2023-06-14T20:35:39;4.40;;;3.20;;
40541;SDS011;49288;52.194;5.676;2023-06-14T20:40:42;4.68;;;3.20;;
40541;SDS011;49288;52.194;5.676;2023-06-14T20:45:45;6.30;;;3.50;;
40541;SDS011;49288;52.194;5.676;2023-06-14T20:50:48;5.50;;;3.33;;
40541;SDS011;49288;52.194;5.676;2023-06-14T20:55:51;5.07;;;3.37;;
40541;SDS011;49288;52.194;5.676;2023-06-14T21:00:54;5.32;;;3.22;;
40541;SDS011;49288;52.194;5.676;2023-06-14T21:05:57;10.93;;;3.65;;
40541;SDS011;49288;52.194;5.676;2023-06-14T21:16:05;7.43;;;3.30;;
40541;SDS011;49288;52.194;5.676;2023-06-14T21:21:09;5.07;;;3.57;;
40541;SDS011;49288;52.194;5.676;2023-06-14T21:26:12;7.05;;;3.80;;
40541;SDS011;49288;52.194;5.676;2023-06-14T21:31:17;7.77;;;3.67;;
40541;SDS011;49288;52.194;5.676;2023-06-14T21:36:20;7.97;;;3.45;;
40541;SDS011;49288;52.194;5.676;2023-06-14T21:41:23;5.40;;;3.70;;
40541;SDS011;49288;52.194;5.676;2023-06-14T21:46:29;6.85;;;3.63;;
40541;SDS011;49288;52.194;5.676;2023-06-14T21:51:33;6.78;;;3.60;;
40541;SDS011;49288;52.194;5.676;2023-06-14T21:56:36;11.73;;;3.78;;
40541;SDS011;49288;52.194;5.676;2023-06-14T22:01:38;7.57;;;3.97;;
40541;SDS011;49288;52.194;5.676;2023-06-14T22:06:42;7.15;;;3.70;;
40541;SDS011;49288;52.194;5.676;2023-06-14T22:11:47;11.60;;;3.60;;
40541;SDS011;49288;52.194;5.676;2023-06-14T22:21:54;6.60;;;3.80;;
40541;SDS011;49288;52.194;5.676;2023-06-14T22:26:59;6.32;;;3.88;;
40541;SDS011;49288;52.194;5.676;2023-06-14T22:32:02;4.78;;;3.88;;
40541;SDS011;49288;52.194;5.676;2023-06-14T22:37:06;5.93;;;3.67;;
40541;SDS011;49288;52.194;5.676;2023-06-14T22:42:10;6.73;;;3.47;;
40541;SDS011;49288;52.194;5.676;2023-06-14T22:47:16;13.30;;;4.57;;
40541;SDS011;49288;52.194;5.676;2023-06-14T22:52:22;7.00;;;4.25;;
40541;SDS011;49288;52.194;5.676;2023-06-14T22:57:28;7.85;;;4.45;;
40541;SDS011;49288;52.194;5.676;2023-06-14T23:02:32;9.20;;;4.20;;
40541;SDS011;49288;52.194;5.676;2023-06-14T23:07:34;7.60;;;4.75;;
40541;SDS011;49288;52.194;5.676;2023-06-14T23:12:38;9.65;;;5.30;;
40541;SDS011;49288;52.194;5.676;2023-06-14T23:17:43;18.02;;;4.82;;
40541;SDS011;49288;52.194;5.676;2023-06-14T23:22:52;13.68;;;5.30;;
40541;SDS011;49288;52.194;5.676;2023-06-14T23:27:55;9.20;;;5.13;;
40541;SDS011;49288;52.194;5.676;2023-06-14T23:32:59;9.02;;;5.22;;
40541;SDS011;49288;52.194;5.676;2023-06-14T23:38:05;11.93;;;5.63;;
40541;SDS011;49288;52.194;5.676;2023-06-14T23:43:08;9.70;;;4.60;;
40541;SDS011;49288;52.194;5.676;2023-06-14T23:48:11;9.38;;;5.05;;
40541;SDS011;49288;52.194;5.676;2023-06-14T23:53:14;7.20;;;5.05;;
40541;SDS011;49288;52.194;5.676;2023-06-14T23:58:16;11.30;;;4.90;;
